createdAt,value
2023-02-15T00:01:22.241Z,-85
2023-02-15T00:03:51.710Z,-85
2023-02-15T00:06:22.026Z,-85
2023-02-15T00:08:50.725Z,-85
2023-02-15T00:11:40.709Z,-84
2023-02-15T00:14:12.200Z,-84
2023-02-15T00:16:41.740Z,-84
2023-02-15T00:19:11.549Z,-85
2023-02-15T00:21:42.561Z,-85
2023-02-15T00:24:13.858Z,-85
2023-02-15T00:26:44.435Z,-84
2023-02-15T00:29:15.034Z,-84
2023-02-15T00:31:44.118Z,-84
2023-02-15T00:34:16.318Z,-84
2023-02-15T00:36:46.955Z,-86
2023-02-15T00:39:16.285Z,-85
2023-02-15T00:41:45.007Z,-84
2023-02-15T00:44:13.815Z,-85
2023-02-15T00:46:42.350Z,-84
2023-02-15T00:49:11.648Z,-84
2023-02-15T00:51:40.425Z,-85
2023-02-15T00:54:10.555Z,-85
2023-02-15T00:56:39.087Z,-85
2023-02-15T00:59:07.681Z,-84
2023-02-15T01:01:36.264Z,-86
2023-02-15T01:04:05.110Z,-85
2023-02-15T01:06:33.754Z,-85
2023-02-15T01:09:02.314Z,-84
2023-02-15T01:11:32.293Z,-86
2023-02-15T01:14:01.599Z,-86
2023-02-15T01:16:31.376Z,-85
2023-02-15T01:19:00.188Z,-85
2023-02-15T01:21:28.966Z,-84
2023-02-15T01:23:57.728Z,-85
2023-02-15T01:26:26.437Z,-84
2023-02-15T01:28:56.438Z,-86
2023-02-15T01:31:25.249Z,-84
2023-02-15T01:33:53.836Z,-85
2023-02-15T01:36:22.392Z,-84
2023-02-15T01:38:51.063Z,-85
2023-02-15T01:41:24.187Z,-86
2023-02-15T01:43:58.123Z,-86
2023-02-15T01:46:33.287Z,-87
2023-02-15T01:49:09.112Z,-87
2023-02-15T01:51:40.618Z,-86
2023-02-15T01:54:17.034Z,-86
2023-02-15T01:56:45.832Z,-87
2023-02-15T01:59:22.877Z,-86
2023-02-15T02:01:53.298Z,-86
2023-02-15T02:04:35.485Z,-85
2023-02-15T02:07:06.814Z,-85
2023-02-15T02:09:35.738Z,-85
2023-02-15T02:12:04.850Z,-85
2023-02-15T02:14:35.427Z,-86
2023-02-15T02:17:14.896Z,-86
2023-02-15T02:20:25.800Z,-87
2023-02-15T02:23:26.817Z,-87
2023-02-15T02:26:45.230Z,-87
2023-02-15T02:30:19.966Z,-86
2023-02-15T02:33:26.220Z,-87
2023-02-15T02:36:08.437Z,-87
2023-02-15T02:38:53.495Z,-87
2023-02-15T02:41:33.361Z,-86
2023-02-15T02:44:11.172Z,-86
2023-02-15T02:46:50.163Z,-86
2023-02-15T02:49:31.883Z,-86
2023-02-15T02:52:02.624Z,-88
2023-02-15T02:54:33.160Z,-88
2023-02-15T02:57:10.286Z,-87
2023-02-15T02:59:46.190Z,-88
2023-02-15T03:02:21.959Z,-87
2023-02-15T03:05:04.695Z,-88
2023-02-15T03:07:37.021Z,-87
2023-02-15T03:10:09.393Z,-88
2023-02-15T03:12:42.298Z,-88
2023-02-15T03:15:18.269Z,-88
2023-02-15T03:17:53.681Z,-88
2023-02-15T03:20:29.192Z,-89
2023-02-15T03:23:03.769Z,-88
2023-02-15T03:25:38.591Z,-88
2023-02-15T03:28:13.301Z,-89
2023-02-15T03:30:45.805Z,-88
2023-02-15T03:33:16.973Z,-87
2023-02-15T03:35:57.975Z,-88
2023-02-15T03:38:36.932Z,-88
2023-02-15T03:41:11.839Z,-87
2023-02-15T03:43:51.960Z,-87
2023-02-15T03:46:28.984Z,-87
2023-02-15T03:49:05.096Z,-87
2023-02-15T03:51:39.750Z,-87
2023-02-15T03:54:11.664Z,-88
2023-02-15T03:57:03.660Z,-88
2023-02-15T03:59:49.972Z,-87
2023-02-15T04:02:27.896Z,-87
2023-02-15T04:04:56.495Z,-87
2023-02-15T04:07:26.608Z,-86
2023-02-15T04:10:12.519Z,-87
2023-02-15T04:12:41.033Z,-88
2023-02-15T04:15:31.794Z,-87
2023-02-15T04:18:00.362Z,-87
2023-02-15T04:20:46.079Z,-87
2023-02-15T04:23:33.428Z,-86
2023-02-15T04:26:05.676Z,-87
2023-02-15T04:28:34.316Z,-87
2023-02-15T04:31:02.969Z,-87
2023-02-15T04:33:31.708Z,-87
2023-02-15T04:36:00.737Z,-87
2023-02-15T04:38:31.027Z,-87
2023-02-15T04:40:59.608Z,-88
2023-02-15T04:43:44.662Z,-87
2023-02-15T04:46:13.231Z,-87
2023-02-15T04:48:42.465Z,-87
2023-02-15T04:51:11.561Z,-87
2023-02-15T04:53:40.132Z,-87
2023-02-15T04:56:08.754Z,-86
2023-02-15T04:58:38.014Z,-87
2023-02-15T05:01:08.057Z,-87
2023-02-15T05:03:36.957Z,-87
2023-02-15T05:06:06.876Z,-87
2023-02-15T05:08:35.620Z,-86
2023-02-15T05:11:07.875Z,-87
2023-02-15T05:13:36.696Z,-87
2023-02-15T05:16:07.355Z,-88
2023-02-15T05:18:35.896Z,-87
2023-02-15T05:21:04.602Z,-87
2023-02-15T05:23:33.140Z,-87
2023-02-15T05:26:19.125Z,-87
2023-02-15T05:28:47.616Z,-87
2023-02-15T05:31:20.775Z,-87
2023-02-15T05:33:49.940Z,-87
2023-02-15T05:36:18.505Z,-87
2023-02-15T05:38:47.091Z,-86
2023-02-15T05:41:15.720Z,-87
2023-02-15T05:43:44.669Z,-87
2023-02-15T05:46:14.233Z,-87
2023-02-15T05:48:44.214Z,-87
2023-02-15T05:51:16.012Z,-86
2023-02-15T05:53:44.970Z,-87
2023-02-15T05:56:14.558Z,-88
2023-02-15T05:58:44.373Z,-86
2023-02-15T06:01:15.218Z,-87
2023-02-15T06:03:45.395Z,-86
2023-02-15T06:06:14.267Z,-88
2023-02-15T06:08:56.896Z,-87
2023-02-15T06:11:27.005Z,-87
2023-02-15T06:13:55.697Z,-88
2023-02-15T06:16:24.752Z,-87
2023-02-15T06:18:54.955Z,-88
2023-02-15T06:21:23.614Z,-86
2023-02-15T06:23:52.270Z,-85
2023-02-15T06:26:21.107Z,-88
2023-02-15T06:28:49.740Z,-88
2023-02-15T06:31:18.788Z,-87
2023-02-15T06:33:47.479Z,-86
2023-02-15T06:36:18.163Z,-89
2023-02-15T06:38:46.929Z,-88
2023-02-15T06:41:15.677Z,-87
2023-02-15T06:43:59.388Z,-86
2023-02-15T06:46:28.228Z,-87
2023-02-15T06:48:56.966Z,-89
2023-02-15T06:51:27.080Z,-88
2023-02-15T06:53:55.872Z,-87
2023-02-15T06:56:24.668Z,-88
2023-02-15T06:58:53.791Z,-87
2023-02-15T07:01:22.576Z,-90
2023-02-15T07:03:51.794Z,-87
2023-02-15T07:06:20.567Z,-88
2023-02-15T07:08:50.983Z,-87
2023-02-15T07:11:37.269Z,-88
2023-02-15T07:14:05.983Z,-88
2023-02-15T07:16:34.550Z,-87
2023-02-15T07:19:03.220Z,-87
2023-02-15T07:21:31.832Z,-87
2023-02-15T07:24:02.224Z,-89
2023-02-15T07:26:32.473Z,-87
2023-02-15T07:29:01.035Z,-87
2023-02-15T07:31:30.160Z,-88
2023-02-15T07:33:58.770Z,-86
2023-02-15T07:36:27.360Z,-87
2023-02-15T07:38:55.861Z,-88
2023-02-15T07:41:25.912Z,-88
2023-02-15T07:43:54.607Z,-87
2023-02-15T07:46:23.472Z,-88
2023-02-15T07:48:52.095Z,-88
2023-02-15T07:51:20.636Z,-87
2023-02-15T07:53:49.388Z,-88
2023-02-15T07:56:18.182Z,-86
2023-02-15T07:58:54.047Z,-87
2023-02-15T08:01:28.118Z,-83
2023-02-15T08:03:57.922Z,-81
2023-02-15T08:06:29.248Z,-80
2023-02-15T08:08:58.325Z,-82
2023-02-15T08:11:34.708Z,-79
2023-02-15T08:14:08.092Z,-79
2023-02-15T08:16:40.111Z,-82
2023-02-15T08:19:11.622Z,-82
2023-02-15T08:21:43.142Z,-83
2023-02-15T08:24:14.030Z,-83
2023-02-15T08:26:43.946Z,-83
2023-02-15T08:29:13.950Z,-83
2023-02-15T08:31:42.864Z,-83
2023-02-15T08:34:15.272Z,-83
2023-02-15T08:36:46.705Z,-86
2023-02-15T08:39:17.246Z,-83
2023-02-15T08:41:48.132Z,-83
2023-02-15T08:44:23.519Z,-83
2023-02-15T08:46:52.944Z,-87
2023-02-15T08:49:23.634Z,-86
2023-02-15T08:51:52.536Z,-86
2023-02-15T08:54:23.061Z,-86
2023-02-15T08:56:51.582Z,-85
2023-02-15T08:59:23.469Z,-86
2023-02-15T09:01:54.147Z,-86
2023-02-15T09:04:23.755Z,-86
2023-02-15T09:06:53.343Z,-86
2023-02-15T09:09:23.255Z,-85
2023-02-15T09:11:58.773Z,-86
2023-02-15T09:14:30.035Z,-86
2023-02-15T09:16:58.846Z,-85
2023-02-15T09:19:27.756Z,-85
2023-02-15T09:21:56.301Z,-85
2023-02-15T09:24:25.009Z,-85
2023-02-15T09:26:53.475Z,-86
2023-02-15T09:29:23.734Z,-85
2023-02-15T09:31:54.706Z,-86
2023-02-15T09:34:25.552Z,-84
2023-02-15T09:36:54.547Z,-84
2023-02-15T09:39:25.739Z,-85
2023-02-15T09:42:50.201Z,-85
2023-02-15T09:45:59.816Z,-85
2023-02-15T09:48:46.221Z,-85
2023-02-15T09:51:47.545Z,-85
2023-02-15T09:54:40.307Z,-85
2023-02-15T09:57:22.237Z,-84
2023-02-15T10:00:05.246Z,-86
2023-02-15T10:02:55.442Z,-85
2023-02-15T10:05:41.050Z,-85
2023-02-15T10:08:57.678Z,-86
2023-02-15T10:11:41.561Z,-85
2023-02-15T10:14:39.076Z,-85
2023-02-15T10:17:34.092Z,-85
2023-02-15T10:20:22.663Z,-85
2023-02-15T10:23:13.535Z,-85
2023-02-15T10:25:53.590Z,-85
2023-02-15T10:28:31.947Z,-83
2023-02-15T10:31:14.059Z,-83
2023-02-15T10:33:44.483Z,-85
2023-02-15T10:36:35.847Z,-85
2023-02-15T10:39:15.592Z,-84
2023-02-15T10:41:57.055Z,-85
2023-02-15T10:44:43.970Z,-83
2023-02-15T10:47:37.369Z,-84
2023-02-15T10:50:27.498Z,-85
2023-02-15T10:53:20.587Z,-84
2023-02-15T10:56:01.802Z,-83
2023-02-15T10:58:53.299Z,-83
2023-02-15T11:01:30.528Z,-83
2023-02-15T11:04:47.978Z,-83
2023-02-15T11:07:25.974Z,-84
2023-02-15T11:10:07.648Z,-84
2023-02-15T11:12:37.533Z,-84
2023-02-15T11:15:22.023Z,-85
2023-02-15T11:17:58.079Z,-83
2023-02-15T11:20:32.022Z,-85
2023-02-15T11:23:03.654Z,-84
2023-02-15T11:25:36.380Z,-83
2023-02-15T11:28:20.956Z,-83
2023-02-15T11:30:56.643Z,-84
2023-02-15T11:33:31.826Z,-84
2023-02-15T11:36:11.794Z,-85
2023-02-15T11:38:44.450Z,-84
2023-02-15T11:41:20.251Z,-84
2023-02-15T11:43:58.801Z,-85
2023-02-15T11:46:27.615Z,-83
2023-02-15T11:48:56.546Z,-84
2023-02-15T11:51:26.581Z,-84
2023-02-15T11:53:55.162Z,-84
2023-02-15T11:56:27.252Z,-85
2023-02-15T11:59:03.005Z,-85
2023-02-15T12:01:39.980Z,-84
2023-02-15T12:04:20.099Z,-82
2023-02-15T12:07:02.292Z,-81
2023-02-15T12:09:38.812Z,-82
2023-02-15T12:12:35.456Z,-82
2023-02-15T12:15:09.140Z,-82
2023-02-15T12:17:43.984Z,-82
2023-02-15T12:20:30.208Z,-82
2023-02-15T12:23:06.110Z,-82
2023-02-15T12:25:41.969Z,-83
2023-02-15T12:28:34.620Z,-82
2023-02-15T12:31:22.483Z,-82
2023-02-15T12:33:55.875Z,-82
2023-02-15T12:36:29.027Z,-81
2023-02-15T12:39:18.029Z,-81
2023-02-15T12:41:58.388Z,-80
2023-02-15T12:44:30.029Z,-81
2023-02-15T12:47:03.691Z,-81
2023-02-15T12:49:34.514Z,-81
2023-02-15T12:52:07.819Z,-81
2023-02-15T12:54:41.890Z,-82
2023-02-15T12:57:29.206Z,-82
2023-02-15T13:00:01.580Z,-81
2023-02-15T13:02:43.494Z,-81
2023-02-15T13:05:33.088Z,-83
2023-02-15T13:08:06.297Z,-80
2023-02-15T13:10:42.050Z,-81
2023-02-15T13:13:18.932Z,-83
2023-02-15T13:15:54.444Z,-82
2023-02-15T13:18:34.698Z,-81
2023-02-15T13:21:13.508Z,-82
2023-02-15T13:23:50.550Z,-82
2023-02-15T13:26:24.604Z,-84
2023-02-15T13:28:58.147Z,-83
2023-02-15T13:31:33.806Z,-83
2023-02-15T13:34:12.816Z,-83
2023-02-15T13:36:54.056Z,-83
2023-02-15T13:39:32.351Z,-83
2023-02-15T13:42:13.825Z,-85
2023-02-15T13:45:05.030Z,-81
2023-02-15T13:47:47.804Z,-81
2023-02-15T13:51:00.196Z,-83
2023-02-15T13:53:52.550Z,-83
2023-02-15T13:56:36.070Z,-83
2023-02-15T13:59:31.341Z,-83
2023-02-15T14:02:31.018Z,-84
2023-02-15T14:05:36.290Z,-84
2023-02-15T14:08:22.085Z,-84
2023-02-15T14:11:02.168Z,-84
2023-02-15T14:14:08.256Z,-83
2023-02-15T14:17:05.654Z,-84
2023-02-15T14:19:47.138Z,-82
2023-02-15T14:22:34.059Z,-83
2023-02-15T14:25:21.145Z,-83
2023-02-15T14:28:04.184Z,-83
2023-02-15T14:30:39.312Z,-83
2023-02-15T14:33:27.833Z,-84
2023-02-15T14:35:57.558Z,-82
2023-02-15T14:38:45.679Z,-83
2023-02-15T14:41:22.089Z,-82
2023-02-15T14:44:04.050Z,-83
2023-02-15T14:46:43.731Z,-84
2023-02-15T14:49:20.669Z,-81
2023-02-15T14:52:03.260Z,-84
2023-02-15T14:54:59.818Z,-81
2023-02-15T14:57:37.310Z,-82
2023-02-15T15:00:40.351Z,-81
2023-02-15T15:03:25.837Z,-80
2023-02-15T15:06:01.293Z,-80
2023-02-15T15:08:37.569Z,-81
2023-02-15T15:11:44.502Z,-81
2023-02-15T15:14:44.977Z,-81
2023-02-15T15:17:37.677Z,-82
2023-02-15T15:20:15.239Z,-82
2023-02-15T15:22:45.264Z,-82
2023-02-15T15:25:43.337Z,-82
2023-02-15T15:28:31.847Z,-83
2023-02-15T15:31:11.561Z,-83
2023-02-15T15:34:24.763Z,-83
2023-02-15T15:37:53.706Z,-82
2023-02-15T15:40:59.354Z,-84
2023-02-15T15:44:22.203Z,-84
2023-02-15T15:47:28.402Z,-83
2023-02-15T15:50:00.317Z,-82
2023-02-15T15:52:32.980Z,-83
2023-02-15T15:55:19.294Z,-83
2023-02-15T15:57:52.153Z,-83
2023-02-15T16:00:38.599Z,-83
2023-02-15T16:03:17.275Z,-84
2023-02-15T16:05:45.998Z,-84
2023-02-15T16:08:15.502Z,-83
2023-02-15T16:10:44.356Z,-83
2023-02-15T16:13:16.894Z,-83
2023-02-15T16:15:50.815Z,-83
2023-02-15T16:18:27.897Z,-85
2023-02-15T16:21:01.278Z,-83
2023-02-15T16:24:08.673Z,-82
2023-02-15T16:27:08.966Z,-82
2023-02-15T16:29:37.668Z,-82
2023-02-15T16:32:08.756Z,-82
2023-02-15T16:34:38.717Z,-82
2023-02-15T16:37:18.346Z,-82
2023-02-15T16:39:50.036Z,-83
2023-02-15T16:42:20.158Z,-83
2023-02-15T16:44:54.298Z,-84
2023-02-15T16:47:29.216Z,-84
2023-02-15T16:50:04.421Z,-83
2023-02-15T16:52:33.401Z,-83
2023-02-15T16:55:07.416Z,-84
2023-02-15T16:57:40.008Z,-85
2023-02-15T17:00:19.516Z,-85
2023-02-15T17:03:00.218Z,-83
2023-02-15T17:05:35.312Z,-83
2023-02-15T17:08:17.594Z,-83
2023-02-15T17:11:05.898Z,-83
2023-02-15T17:13:34.843Z,-83
2023-02-15T17:16:30.672Z,-83
2023-02-15T17:19:00.643Z,-83
2023-02-15T17:21:35.774Z,-84
2023-02-15T17:24:06.337Z,-85
2023-02-15T17:26:39.849Z,-85
2023-02-15T17:29:20.458Z,-85
2023-02-15T17:31:53.120Z,-85
2023-02-15T17:35:15.316Z,-84
2023-02-15T17:37:51.292Z,-85
2023-02-15T17:40:25.725Z,-87
2023-02-15T17:42:54.647Z,-87
2023-02-15T17:45:26.972Z,-85
2023-02-15T17:47:55.618Z,-85
2023-02-15T17:50:26.970Z,-84
2023-02-15T17:52:59.349Z,-85
2023-02-15T17:55:35.765Z,-87
2023-02-15T17:58:09.129Z,-85
2023-02-15T18:01:00.149Z,-84
2023-02-15T18:03:58.129Z,-83
2023-02-15T18:06:43.828Z,-85
2023-02-15T18:09:34.820Z,-83
2023-02-15T18:12:04.402Z,-82
2023-02-15T18:14:32.821Z,-83
2023-02-15T18:17:01.245Z,-81
2023-02-15T18:19:29.856Z,-83
2023-02-15T18:21:58.649Z,-83
2023-02-15T18:24:28.917Z,-83
2023-02-15T18:26:57.438Z,-83
2023-02-15T18:29:25.994Z,-84
2023-02-15T18:31:57.939Z,-84
2023-02-15T18:34:31.956Z,-84
2023-02-15T18:37:05.681Z,-84
2023-02-15T18:39:41.221Z,-82
2023-02-15T18:42:24.983Z,-83
2023-02-15T18:44:57.624Z,-83
2023-02-15T18:47:26.316Z,-83
2023-02-15T18:49:55.005Z,-83
2023-02-15T18:52:27.302Z,-83
2023-02-15T18:55:02.550Z,-83
2023-02-15T18:57:31.802Z,-84
2023-02-15T19:00:00.264Z,-83
2023-02-15T19:02:29.257Z,-83
2023-02-15T19:04:57.746Z,-84
2023-02-15T19:07:29.870Z,-84
2023-02-15T19:10:03.125Z,-83
2023-02-15T19:12:32.075Z,-84
2023-02-15T19:15:02.103Z,-84
2023-02-15T19:17:30.739Z,-84
2023-02-15T19:19:59.284Z,-84
2023-02-15T19:22:31.366Z,-84
2023-02-15T19:25:05.892Z,-84
2023-02-15T19:27:37.115Z,-85
2023-02-15T19:30:16.385Z,-83
2023-02-15T19:32:45.572Z,-84
2023-02-15T19:35:20.018Z,-84
2023-02-15T19:37:52.789Z,-84
2023-02-15T19:40:26.678Z,-84
2023-02-15T19:42:55.829Z,-84
2023-02-15T19:45:27.263Z,-84
2023-02-15T19:47:56.213Z,-85
2023-02-15T19:50:27.646Z,-85
2023-02-15T19:52:56.819Z,-84
2023-02-15T19:55:29.970Z,-85
2023-02-15T19:58:00.731Z,-85
2023-02-15T20:00:32.291Z,-84
2023-02-15T20:03:02.256Z,-84
2023-02-15T20:05:34.247Z,-84
2023-02-15T20:08:04.115Z,-84
2023-02-15T20:10:33.995Z,-83
2023-02-15T20:13:03.405Z,-83
2023-02-15T20:15:34.600Z,-82
2023-02-15T20:18:05.076Z,-84
2023-02-15T20:20:40.707Z,-84
2023-02-15T20:23:21.507Z,-84
2023-02-15T20:25:52.339Z,-84
2023-02-15T20:28:23.544Z,-84
2023-02-15T20:30:52.925Z,-83
2023-02-15T20:33:23.886Z,-83
2023-02-15T20:35:53.061Z,-84
2023-02-15T20:38:26.643Z,-83
2023-02-15T20:41:16.981Z,-83
2023-02-15T20:43:46.013Z,-83
2023-02-15T20:46:14.576Z,-83
2023-02-15T20:48:43.380Z,-83
2023-02-15T20:51:19.198Z,-84
2023-02-15T20:53:48.677Z,-84
2023-02-15T20:56:22.277Z,-83
2023-02-15T20:58:54.104Z,-84
2023-02-15T21:01:22.944Z,-82
2023-02-15T21:03:51.634Z,-84
2023-02-15T21:06:20.299Z,-84
2023-02-15T21:08:48.800Z,-83
2023-02-15T21:11:23.462Z,-84
2023-02-15T21:13:52.600Z,-84
2023-02-15T21:16:21.828Z,-81
2023-02-15T21:18:50.327Z,-81
2023-02-15T21:21:24.647Z,-83
2023-02-15T21:23:54.940Z,-84
2023-02-15T21:26:24.902Z,-84
2023-02-15T21:28:53.475Z,-84
2023-02-15T21:31:24.461Z,-83
2023-02-15T21:33:53.578Z,-83
2023-02-15T21:36:26.951Z,-86
2023-02-15T21:38:55.661Z,-84
2023-02-15T21:41:44.455Z,-85
2023-02-15T21:44:37.003Z,-86
2023-02-15T21:47:23.243Z,-86
2023-02-15T21:49:53.028Z,-85
2023-02-15T21:52:24.217Z,-83
2023-02-15T21:54:52.601Z,-84
2023-02-15T21:57:22.634Z,-83
2023-02-15T21:59:51.080Z,-83
2023-02-15T22:02:31.877Z,-83
2023-02-15T22:05:00.978Z,-84
2023-02-15T22:07:29.632Z,-83
2023-02-15T22:09:58.247Z,-84
2023-02-15T22:12:28.658Z,-83
2023-02-15T22:14:57.342Z,-82
2023-02-15T22:17:29.297Z,-83
2023-02-15T22:19:59.024Z,-82
2023-02-15T22:22:30.190Z,-83
2023-02-15T22:24:58.873Z,-83
2023-02-15T22:27:31.641Z,-83
2023-02-15T22:30:00.459Z,-84
2023-02-15T22:32:29.578Z,-84
2023-02-15T22:34:58.106Z,-84
2023-02-15T22:37:27.520Z,-84
2023-02-15T22:39:56.076Z,-85
2023-02-15T22:42:29.785Z,-84
2023-02-15T22:44:59.976Z,-84
2023-02-15T22:47:32.373Z,-85
2023-02-15T22:50:01.067Z,-85
2023-02-15T22:52:29.974Z,-84
2023-02-15T22:54:58.520Z,-84
2023-02-15T22:57:33.562Z,-84
2023-02-15T23:00:02.813Z,-85
2023-02-15T23:02:31.652Z,-85
2023-02-15T23:05:00.245Z,-85
2023-02-15T23:07:30.057Z,-85
2023-02-15T23:09:58.922Z,-87
2023-02-15T23:12:54.343Z,-86
2023-02-15T23:15:22.983Z,-86
2023-02-15T23:17:51.716Z,-87
2023-02-15T23:20:20.982Z,-84
2023-02-15T23:22:50.062Z,-83
2023-02-15T23:25:22.126Z,-83
2023-02-15T23:27:58.080Z,-88
2023-02-15T23:30:29.870Z,-84
2023-02-15T23:32:59.363Z,-84
2023-02-15T23:35:28.006Z,-84
2023-02-15T23:37:56.682Z,-84
2023-02-15T23:40:42.856Z,-84
2023-02-15T23:43:22.676Z,-84
2023-02-15T23:45:51.484Z,-84
2023-02-15T23:48:30.852Z,-84
2023-02-15T23:51:00.633Z,-84
2023-02-15T23:53:29.360Z,-84
2023-02-15T23:55:58.359Z,-85
2023-02-15T23:58:37.479Z,-85
